5 day graph

You are here

Error message

  • Notice: Trying to access array offset on value of type int in DrupalRequestSanitizer::stripDangerousValues() (line 102 of /home/twolittl/public_html/cms/includes/request-sanitizer.inc).
  • Notice: Trying to access array offset on value of type int in DrupalRequestSanitizer::stripDangerousValues() (line 102 of /home/twolittl/public_html/cms/includes/request-sanitizer.inc).
  • Notice: Trying to access array offset on value of type int in DrupalRequestSanitizer::stripDangerousValues() (line 102 of /home/twolittl/public_html/cms/includes/request-sanitizer.inc).
  • Notice: Trying to access array offset on value of type int in DrupalRequestSanitizer::stripDangerousValues() (line 102 of /home/twolittl/public_html/cms/includes/request-sanitizer.inc).
  • Notice: Trying to access array offset on value of type int in DrupalRequestSanitizer::stripDangerousValues() (line 102 of /home/twolittl/public_html/cms/includes/request-sanitizer.inc).
  • Notice: Trying to access array offset on value of type int in DrupalRequestSanitizer::stripDangerousValues() (line 102 of /home/twolittl/public_html/cms/includes/request-sanitizer.inc).
  • Notice: Trying to access array offset on value of type int in DrupalRequestSanitizer::stripDangerousValues() (line 102 of /home/twolittl/public_html/cms/includes/request-sanitizer.inc).
  • Notice: Trying to access array offset on value of type int in DrupalRequestSanitizer::stripDangerousValues() (line 102 of /home/twolittl/public_html/cms/includes/request-sanitizer.inc).
  • Notice: Trying to access array offset on value of type int in DrupalRequestSanitizer::stripDangerousValues() (line 102 of /home/twolittl/public_html/cms/includes/request-sanitizer.inc).
  • Notice: Trying to access array offset on value of type int in DrupalRequestSanitizer::stripDangerousValues() (line 102 of /home/twolittl/public_html/cms/includes/request-sanitizer.inc).
  • Deprecated function: Function get_magic_quotes_gpc() is deprecated in phpMyEdit->get_cgi_var() (line 1773 of /home/twolittl/public_html/phpMyEdit.class.php).
  • Deprecated function: implode(): Passing glue string after array is deprecated. Swap the parameters in drupal_get_feeds() (line 394 of /home/twolittl/public_html/cms/includes/common.inc).

Hive Data

Page: 1 of 16645  Records: 998690

Row Date Time Hive Temp Hive Humidity Outside Temp Outside Humidity Bottom Board Temp Outside Wall Temp Electronics Temp Light Levels inHG Fan Heat Cover Notes
Clear Sorted By: Heat ascending, Hive Temp ascending, Outside Wall Temp descending, Electronics Temp ascending, Row descending
View 48335 Jun 7 2014 8:25:04pm 32 0 71.06 45 80.6 71.6 87.8 623 29.43 0 0 0 NA
View 765411 Dec 30 2015 10:37:25am 39.38 53 33.62 76 26.15 54.5 44.6 55 29.66 0 0 0 NA
View 765410 Dec 30 2015 10:36:25am 39.38 53 33.44 78 26.15 54.5 44.6 56 29.66 0 0 0 NA
View 765409 Dec 30 2015 10:35:24am 39.38 54 33.44 80 26.15 54.05 42.8 57 29.66 0 0 0 NA
View 765408 Dec 30 2015 10:34:24am 39.38 53 33.44 79 26.15 53.6 42.8 56 29.66 0 0 0 NA
View 765407 Dec 30 2015 10:33:24am 39.38 52 33.26 78 26.15 53.15 42.8 56 29.66 0 0 0 NA
View 765406 Dec 30 2015 10:32:24am 39.38 53 33.26 76 26.15 52.7 42.8 57 29.66 0 0 0 NA
View 765405 Dec 30 2015 10:31:23am 39.38 54 33.08 75 26.15 52.25 42.8 55 29.66 0 0 0 NA
View 765404 Dec 30 2015 10:30:23am 39.38 54 33.08 78 26.15 51.8 42.8 56 29.66 0 0 0 NA
View 765403 Dec 30 2015 10:29:23am 39.38 53 32.9 78 26.15 51.35 42.8 55 29.66 0 0 0 NA
View 765402 Dec 30 2015 10:28:23am 39.38 53 32.9 79 25.7 50.9 42.8 55 29.66 0 0 0 NA
View 765401 Dec 30 2015 10:27:23am 39.38 52 32.72 78 25.7 50.45 42.8 54 29.66 0 0 0 NA
View 765400 Dec 30 2015 10:26:23am 39.38 53 32.9 79 25.7 50 42.8 54 29.66 0 0 0 NA
View 765399 Dec 30 2015 10:25:22am 39.38 53 32.72 80 25.7 49.1 42.8 54 29.66 0 0 0 NA
View 765398 Dec 30 2015 10:24:22am 39.38 53 32.54 81 25.7 49.1 42.8 53 29.67 0 0 0 NA
View 765397 Dec 30 2015 10:23:22am 39.38 53 32.54 80 25.7 48.65 42.8 52 29.66 0 0 0 NA
View 765396 Dec 30 2015 10:22:22am 39.38 53 32.54 79 25.7 48.2 42.8 52 29.66 0 0 0 NA
View 765395 Dec 30 2015 10:21:22am 39.38 52 32.36 78 25.7 47.75 42.8 51 29.66 0 0 0 NA
View 765394 Dec 30 2015 10:20:21am 39.38 52 32.18 77 25.7 46.85 42.8 51 29.66 0 0 0 NA
View 765393 Dec 30 2015 10:19:22am 39.38 52 32.18 77 25.7 46.4 42.8 50 29.66 0 0 0 NA
View 765392 Dec 30 2015 10:18:21am 39.38 52 32.18 79 25.7 45.95 42.8 50 29.66 0 0 0 NA
View 765391 Dec 30 2015 10:17:21am 39.38 54 32 80 25.7 45.5 42.8 49 29.66 0 0 0 NA
View 765390 Dec 30 2015 10:16:21am 39.38 55 32 80 25.7 45.05 42.8 48 29.66 0 0 0 NA
View 765389 Dec 30 2015 10:15:21am 39.38 56 31.82 81 25.7 44.6 42.8 51 29.66 0 0 0 NA
View 765387 Dec 30 2015 10:13:20am 39.38 53 31.64 79 25.25 42.8 42.8 48 29.67 0 0 0 NA
View 765422 Dec 30 2015 10:48:27am 39.56 54 34.88 71 26.6 58.55 44.6 60 29.66 0 0 0 NA
View 765421 Dec 30 2015 10:47:27am 39.56 55 34.7 72 26.6 58.1 44.6 59 29.67 0 0 0 NA
View 765420 Dec 30 2015 10:46:27am 39.56 55 34.52 72 26.6 57.65 44.6 60 29.66 0 0 0 NA
View 765419 Dec 30 2015 10:45:26am 39.56 54 34.52 71 26.6 57.2 44.6 58 29.66 0 0 0 NA
View 765418 Dec 30 2015 10:44:26am 39.56 54 34.34 71 26.6 56.75 44.6 58 29.66 0 0 0 NA
View 765417 Dec 30 2015 10:43:26am 39.56 53 34.34 70 26.6 56.3 44.6 58 29.66 0 0 0 NA
View 765416 Dec 30 2015 10:42:26am 39.56 54 34.16 71 26.6 55.85 44.6 58 29.66 0 0 0 NA
View 765415 Dec 30 2015 10:41:25am 39.56 55 34.16 72 26.6 55.85 44.6 58 29.66 0 0 0 NA
View 765414 Dec 30 2015 10:40:25am 39.56 53 33.98 72 26.6 55.4 44.6 57 29.66 0 0 0 NA
View 765413 Dec 30 2015 10:39:25am 39.56 54 33.8 73 26.15 54.95 44.6 57 29.66 0 0 0 NA
View 765412 Dec 30 2015 10:38:25am 39.56 53 33.8 73 26.15 54.95 44.6 58 29.66 0 0 0 NA
View 765388 Dec 30 2015 10:14:20am 39.56 54 31.82 80 25.25 43.7 42.8 50 29.66 0 0 0 NA
View 765386 Dec 30 2015 10:12:20am 39.56 53 31.64 81 25.7 42.35 42.8 46 29.66 0 0 0 NA
View 765384 Dec 30 2015 10:10:20am 39.56 53 31.46 82 25.25 41.9 41 44 29.66 0 0 0 NA
View 765385 Dec 30 2015 10:11:20am 39.56 53 31.64 82 25.7 41.9 42.8 44 29.66 0 0 0 NA
View 765383 Dec 30 2015 10:09:20am 39.56 52 31.46 81 25.25 41.45 41 48 29.66 0 0 0 NA
View 765382 Dec 30 2015 10:08:19am 39.56 53 31.46 80 25.25 41 41 47 29.66 0 0 0 NA
View 765381 Dec 30 2015 10:07:19am 39.56 52 31.28 81 25.25 40.55 41 48 29.66 0 0 0 NA
View 765380 Dec 30 2015 10:06:19am 39.56 53 31.28 82 25.25 39.65 42.8 47 29.66 0 0 0 NA
View 765379 Dec 30 2015 10:05:19am 39.56 53 31.1 82 25.25 38.75 42.8 46 29.66 0 0 0 NA
View 765378 Dec 30 2015 10:04:19am 39.56 53 31.1 81 25.25 37.85 42.8 43 29.66 0 0 0 NA
View 765377 Dec 30 2015 10:03:18am 39.56 54 31.1 79 25.25 37.4 42.8 38 29.66 0 0 0 NA
View 765376 Dec 30 2015 10:02:18am 39.56 56 30.92 79 25.25 36.95 42.8 40 29.65 0 0 0 NA
View 765375 Dec 30 2015 10:01:18am 39.56 55 30.74 79 25.25 36.5 41 43 29.66 0 0 0 NA
View 765374 Dec 30 2015 10:00:18am 39.56 53 30.74 80 25.25 35.6 41 44 29.66 0 0 0 NA
View 765373 Dec 30 2015 9:59:18am 39.56 53 30.56 80 25.25 34.7 41 45 29.66 0 0 0 NA
View 765372 Dec 30 2015 9:58:17am 39.56 52 30.38 81 25.25 33.8 41 41 29.66 0 0 0 NA
View 765371 Dec 30 2015 9:57:17am 39.56 52 30.38 81 25.25 32.9 41 33 29.66 0 0 0 NA
View 765370 Dec 30 2015 9:56:17am 39.56 52 30.2 81 25.25 32.9 41 34 29.66 0 0 0 NA
View 765369 Dec 30 2015 9:55:17am 39.56 54 30.02 81 25.25 32.45 41 37 29.66 0 0 0 NA
View 765368 Dec 30 2015 9:54:16am 39.56 54 30.02 82 25.25 32 41 38 29.66 0 0 0 NA
View 765367 Dec 30 2015 9:53:17am 39.56 53 29.84 83 25.25 31.1 41 40 29.66 0 0 0 NA
View 765431 Dec 30 2015 10:57:29am 39.74 56 35.42 69 27.05 61.7 46.4 60 29.67 0 0 0 NA
View 765430 Dec 30 2015 10:56:29am 39.74 56 35.42 70 27.05 61.25 46.4 60 29.66 0 0 0 NA
View 765429 Dec 30 2015 10:55:28am 39.74 55 35.42 70 27.05 60.8 46.4 61 29.66 0 0 0 NA